sensor_id;sensor_type;location;lat;lon;timestamp;pressure;altitude;pressure_sealevel;temperature;humidity
48053;BME280;33824;51.600;5.718;2023-04-05T00:01:27;102307.19;;;3.67;70.48
48053;BME280;33824;51.600;5.718;2023-04-05T00:03:58;102296.25;;;3.59;71.28
48053;BME280;33824;51.600;5.718;2023-04-05T00:06:24;102292.94;;;3.55;71.73
48053;BME280;33824;51.600;5.718;2023-04-05T00:08:59;102299.50;;;3.20;72.70
48053;BME280;33824;51.600;5.718;2023-04-05T00:11:29;102307.78;;;3.28;72.24
48053;BME280;33824;51.600;5.718;2023-04-05T00:13:57;102293.88;;;3.26;72.07
48053;BME280;33824;51.600;5.718;2023-04-05T00:16:23;102297.44;;;3.25;72.06
48053;BME280;33824;51.600;5.718;2023-04-05T00:18:49;102293.94;;;3.24;71.95
48053;BME280;33824;51.600;5.718;2023-04-05T00:21:16;102292.28;;;3.23;72.27
48053;BME280;33824;51.600;5.718;2023-04-05T00:23:52;102295.72;;;3.24;72.55
48053;BME280;33824;51.600;5.718;2023-04-05T00:26:19;102294.22;;;3.20;72.53
48053;BME280;33824;51.600;5.718;2023-04-05T00:28:46;102291.59;;;3.20;72.75
48053;BME280;33824;51.600;5.718;2023-04-05T00:31:12;102294.31;;;3.18;73.34
48053;BME280;33824;51.600;5.718;2023-04-05T00:33:38;102286.22;;;3.21;73.29
48053;BME280;33824;51.600;5.718;2023-04-05T00:36:15;102280.56;;;3.13;72.94
48053;BME280;33824;51.600;5.718;2023-04-05T00:38:42;102294.22;;;3.20;72.80
48053;BME280;33824;51.600;5.718;2023-04-05T00:41:09;102287.09;;;3.22;73.27
48053;BME280;33824;51.600;5.718;2023-04-05T00:43:35;102284.44;;;3.22;72.79
48053;BME280;33824;51.600;5.718;2023-04-05T00:46:01;102284.53;;;3.20;72.71
48053;BME280;33824;51.600;5.718;2023-04-05T00:48:28;102280.28;;;3.18;72.64
48053;BME280;33824;51.600;5.718;2023-04-05T00:50:54;102271.06;;;3.11;72.29
48053;BME280;33824;51.600;5.718;2023-04-05T00:53:20;102271.34;;;3.06;72.11
48053;BME280;33824;51.600;5.718;2023-04-05T00:55:46;102283.84;;;3.03;71.96
48053;BME280;33824;51.600;5.718;2023-04-05T00:58:14;102282.13;;;3.02;72.00
48053;BME280;33824;51.600;5.718;2023-04-05T01:00:46;102277.06;;;2.99;72.18
48053;BME280;33824;51.600;5.718;2023-04-05T01:03:14;102279.50;;;3.02;72.13
48053;BME280;33824;51.600;5.718;2023-04-05T01:05:46;102275.28;;;2.99;71.99
48053;BME280;33824;51.600;5.718;2023-04-05T01:08:17;102265.66;;;2.98;71.55
48053;BME280;33824;51.600;5.718;2023-04-05T01:10:49;102270.19;;;2.96;71.38
48053;BME280;33824;51.600;5.718;2023-04-05T01:13:16;102273.69;;;2.97;71.25
48053;BME280;33824;51.600;5.718;2023-04-05T01:15:42;102267.38;;;2.99;71.58
48053;BME280;33824;51.600;5.718;2023-04-05T01:18:07;102270.06;;;2.98;70.64
48053;BME280;33824;51.600;5.718;2023-04-05T01:20:42;102273.94;;;2.92;70.83
48053;BME280;33824;51.600;5.718;2023-04-05T01:23:45;102273.53;;;2.84;71.02
48053;BME280;33824;51.600;5.718;2023-04-05T01:29:42;102264.31;;;2.77;70.88
48053;BME280;33824;51.600;5.718;2023-04-05T01:35:11;102259.78;;;2.79;70.49
48053;BME280;33824;51.600;5.718;2023-04-05T01:37:38;102253.31;;;2.84;70.17
48053;BME280;33824;51.600;5.718;2023-04-05T01:40:06;102257.81;;;2.82;70.05
48053;BME280;33824;51.600;5.718;2023-04-05T01:42:32;102258.91;;;2.78;70.11
48053;BME280;33824;51.600;5.718;2023-04-05T01:44:58;102258.25;;;2.75;69.88
48053;BME280;33824;51.600;5.718;2023-04-05T01:47:24;102262.00;;;2.71;69.70
48053;BME280;33824;51.600;5.718;2023-04-05T01:49:49;102254.53;;;2.63;69.71
48053;BME280;33824;51.600;5.718;2023-04-05T01:52:15;102251.44;;;2.57;69.92
48053;BME280;33824;51.600;5.718;2023-04-05T01:54:40;102253.56;;;2.50;70.36
48053;BME280;33824;51.600;5.718;2023-04-05T01:57:06;102248.50;;;2.47;70.26
48053;BME280;33824;51.600;5.718;2023-04-05T01:59:31;102257.31;;;2.46;70.60
48053;BME280;33824;51.600;5.718;2023-04-05T02:01:57;102254.00;;;2.42;70.79
48053;BME280;33824;51.600;5.718;2023-04-05T02:04:23;102251.56;;;2.39;70.72
48053;BME280;33824;51.600;5.718;2023-04-05T02:06:48;102251.72;;;2.36;71.24
48053;BME280;33824;51.600;5.718;2023-04-05T02:09:14;102253.59;;;2.34;71.54
48053;BME280;33824;51.600;5.718;2023-04-05T02:11:40;102251.16;;;2.31;72.05
48053;BME280;33824;51.600;5.718;2023-04-05T02:14:05;102248.78;;;2.27;72.58
48053;BME280;33824;51.600;5.718;2023-04-05T02:16:31;102248.94;;;2.24;73.74
48053;BME280;33824;51.600;5.718;2023-04-05T02:18:58;102240.28;;;2.22;73.29
48053;BME280;33824;51.600;5.718;2023-04-05T02:21:24;102241.38;;;2.18;73.82
48053;BME280;33824;51.600;5.718;2023-04-05T02:23:51;102237.31;;;2.12;73.59
48053;BME280;33824;51.600;5.718;2023-04-05T02:26:17;102237.50;;;2.09;73.70
48053;BME280;33824;51.600;5.718;2023-04-05T02:28:43;102239.44;;;2.06;74.11
48053;BME280;33824;51.600;5.718;2023-04-05T02:31:15;102238.06;;;1.99;74.17
48053;BME280;33824;51.600;5.718;2023-04-05T02:33:40;102234.69;;;1.97;74.29
48053;BME280;33824;51.600;5.718;2023-04-05T02:36:07;102231.28;;;1.94;74.52
48053;BME280;33824;51.600;5.718;2023-04-05T02:38:34;102234.88;;;1.93;74.57
48053;BME280;33824;51.600;5.718;2023-04-05T02:41:00;102231.56;;;1.90;74.62
48053;BME280;33824;51.600;5.718;2023-04-05T02:43:26;102233.34;;;1.89;74.79
48053;BME280;33824;51.600;5.718;2023-04-05T02:45:51;102226.56;;;1.85;74.58
48053;BME280;33824;51.600;5.718;2023-04-05T02:48:17;102231.97;;;1.82;75.12
48053;BME280;33824;51.600;5.718;2023-04-05T02:50:51;102229.06;;;1.71;75.48
48053;BME280;33824;51.600;5.718;2023-04-05T02:53:17;102220.00;;;1.77;75.46
48053;BME280;33824;51.600;5.718;2023-04-05T02:55:53;102219.41;;;1.72;75.29
48053;BME280;33824;51.600;5.718;2023-04-05T02:58:19;102219.41;;;1.72;75.46
48053;BME280;33824;51.600;5.718;2023-04-05T03:00:46;102216.09;;;1.68;75.29
48053;BME280;33824;51.600;5.718;2023-04-05T03:03:22;102215.16;;;1.69;75.21
48053;BME280;33824;51.600;5.718;2023-04-05T03:05:47;102215.09;;;1.71;75.57
48053;BME280;33824;51.600;5.718;2023-04-05T03:08:16;102219.69;;;1.67;75.47
48053;BME280;33824;51.600;5.718;2023-04-05T03:10:50;102209.31;;;1.64;76.22
48053;BME280;33824;51.600;5.718;2023-04-05T03:13:16;102216.34;;;1.64;75.56
48053;BME280;33824;51.600;5.718;2023-04-05T03:15:41;102205.91;;;1.62;76.10
48053;BME280;33824;51.600;5.718;2023-04-05T03:18:08;102205.06;;;1.62;75.93
48053;BME280;33824;51.600;5.718;2023-04-05T03:20:34;102201.75;;;1.58;76.04
48053;BME280;33824;51.600;5.718;2023-04-05T03:23:07;102203.88;;;1.52;75.55
48053;BME280;33824;51.600;5.718;2023-04-05T03:25:36;102204.97;;;1.48;76.07
48053;BME280;33824;51.600;5.718;2023-04-05T03:28:04;102203.94;;;1.50;76.57
48053;BME280;33824;51.600;5.718;2023-04-05T03:30:34;102203.44;;;1.43;76.64
48053;BME280;33824;51.600;5.718;2023-04-05T03:33:00;102204.44;;;1.41;76.84
48053;BME280;33824;51.600;5.718;2023-04-05T03:35:27;102201.13;;;1.37;76.79
48053;BME280;33824;51.600;5.718;2023-04-05T03:37:54;102202.16;;;1.35;76.81
48053;BME280;33824;51.600;5.718;2023-04-05T03:40:21;102210.19;;;1.32;77.00
48053;BME280;33824;51.600;5.718;2023-04-05T03:42:47;102204.09;;;1.31;77.74
48053;BME280;33824;51.600;5.718;2023-04-05T03:45:12;102202.47;;;1.29;77.00
48053;BME280;33824;51.600;5.718;2023-04-05T03:47:38;102200.63;;;1.31;77.65
48053;BME280;33824;51.600;5.718;2023-04-05T03:50:04;102203.25;;;1.31;77.30
48053;BME280;33824;51.600;5.718;2023-04-05T03:52:29;102207.75;;;1.29;77.55
48053;BME280;33824;51.600;5.718;2023-04-05T03:54:55;102205.34;;;1.24;77.41
48053;BME280;33824;51.600;5.718;2023-04-05T03:57:21;102195.94;;;1.20;78.09
48053;BME280;33824;51.600;5.718;2023-04-05T03:59:46;102188.22;;;1.17;77.49
48053;BME280;33824;51.600;5.718;2023-04-05T04:02:12;102190.91;;;1.16;77.64
48053;BME280;33824;51.600;5.718;2023-04-05T04:04:37;102188.28;;;1.16;78.43
48053;BME280;33824;51.600;5.718;2023-04-05T04:07:03;102183.09;;;1.14;77.92
48053;BME280;33824;51.600;5.718;2023-04-05T04:09:29;102179.66;;;1.14;78.11
48053;BME280;33824;51.600;5.718;2023-04-05T04:11:55;102181.44;;;1.13;78.09
48053;BME280;33824;51.600;5.718;2023-04-05T04:14:23;102178.81;;;1.13;78.58
48053;BME280;33824;51.600;5.718;2023-04-05T04:16:49;102180.56;;;1.13;78.70
48053;BME280;33824;51.600;5.718;2023-04-05T04:19:17;102183.38;;;1.10;78.58
48053;BME280;33824;51.600;5.718;2023-04-05T04:21:43;102183.44;;;1.08;78.84
48053;BME280;33824;51.600;5.718;2023-04-05T04:24:15;102184.63;;;1.03;78.50
48053;BME280;33824;51.600;5.718;2023-04-05T04:26:44;102182.13;;;1.00;78.47
48053;BME280;33824;51.600;5.718;2023-04-05T04:29:10;102183.09;;;0.99;78.58
48053;BME280;33824;51.600;5.718;2023-04-05T04:31:38;102177.91;;;0.97;79.17
48053;BME280;33824;51.600;5.718;2023-04-05T04:34:04;102174.59;;;0.93;78.76
48053;BME280;33824;51.600;5.718;2023-04-05T04:36:30;102180.00;;;0.90;78.96
48053;BME280;33824;51.600;5.718;2023-04-05T04:39:03;102183.63;;;0.88;79.51
48053;BME280;33824;51.600;5.718;2023-04-05T04:41:32;102173.97;;;0.88;79.12
48053;BME280;33824;51.600;5.718;2023-04-05T04:44:01;102180.94;;;0.89;79.41
48053;BME280;33824;51.600;5.718;2023-04-05T04:46:33;102180.31;;;0.84;79.23
48053;BME280;33824;51.600;5.718;2023-04-05T04:49:10;102183.78;;;0.85;79.28
48053;BME280;33824;51.600;5.718;2023-04-05T04:51:37;102187.31;;;0.84;79.57
48053;BME280;33824;51.600;5.718;2023-04-05T04:54:03;102189.94;;;0.84;79.64
48053;BME280;33824;51.600;5.718;2023-04-05T04:56:29;102187.31;;;0.84;80.05
48053;BME280;33824;51.600;5.718;2023-04-05T04:58:55;102180.41;;;0.83;79.99
48053;BME280;33824;51.600;5.718;2023-04-05T05:01:22;102183.09;;;0.81;79.74
48053;BME280;33824;51.600;5.718;2023-04-05T05:03:49;102183.19;;;0.80;79.86
48053;BME280;33824;51.600;5.718;2023-04-05T05:06:38;102181.78;;;0.73;80.17
48053;BME280;33824;51.600;5.718;2023-04-05T05:09:13;102182.34;;;0.79;79.80
48053;BME280;33824;51.600;5.718;2023-04-05T05:11:38;102181.38;;;0.80;80.02
48053;BME280;33824;51.600;5.718;2023-04-05T05:14:04;102177.00;;;0.81;80.54
48053;BME280;33824;51.600;5.718;2023-04-05T05:16:29;102183.88;;;0.83;80.80
48053;BME280;33824;51.600;5.718;2023-04-05T05:18:55;102180.94;;;0.89;80.67
48053;BME280;33824;51.600;5.718;2023-04-05T05:21:20;102178.91;;;0.94;80.95
48053;BME280;33824;51.600;5.718;2023-04-05T05:23:47;102182.31;;;0.96;80.51
48053;BME280;33824;51.600;5.718;2023-04-05T05:26:13;102189.03;;;1.02;80.84
48053;BME280;33824;51.600;5.718;2023-04-05T05:28:38;102181.84;;;1.06;80.84
48053;BME280;33824;51.600;5.718;2023-04-05T05:31:05;102182.28;;;1.14;81.06
48053;BME280;33824;51.600;5.718;2023-04-05T05:33:30;102187.13;;;1.21;81.12
48053;BME280;33824;51.600;5.718;2023-04-05T05:35:56;102182.31;;;1.29;81.03
48053;BME280;33824;51.600;5.718;2023-04-05T05:38:22;102188.75;;;1.39;80.77
48053;BME280;33824;51.600;5.718;2023-04-05T05:40:54;102178.75;;;1.46;81.42
48053;BME280;33824;51.600;5.718;2023-04-05T05:43:19;102176.16;;;1.62;81.28
48053;BME280;33824;51.600;5.718;2023-04-05T05:45:45;102172.75;;;1.75;81.25
48053;BME280;33824;51.600;5.718;2023-04-05T05:48:10;102172.16;;;1.86;80.95
48053;BME280;33824;51.600;5.718;2023-04-05T05:50:39;102161.72;;;2.00;81.40
48053;BME280;33824;51.600;5.718;2023-04-05T05:53:04;102171.44;;;2.14;81.27
48053;BME280;33824;51.600;5.718;2023-04-05T05:55:30;102161.81;;;2.28;81.47
48053;BME280;33824;51.600;5.718;2023-04-05T05:57:56;102167.22;;;2.41;81.24
48053;BME280;33824;51.600;5.718;2023-04-05T06:00:21;102171.78;;;2.53;81.12
48053;BME280;33824;51.600;5.718;2023-04-05T06:02:48;102168.50;;;2.64;80.67
48053;BME280;33824;51.600;5.718;2023-04-05T06:05:13;102168.72;;;2.75;80.73
48053;BME280;33824;51.600;5.718;2023-04-05T06:07:39;102173.16;;;2.88;80.63
48053;BME280;33824;51.600;5.718;2023-04-05T06:10:06;102163.84;;;2.97;80.39
48053;BME280;33824;51.600;5.718;2023-04-05T06:12:31;102177.13;;;3.10;79.76
48053;BME280;33824;51.600;5.718;2023-04-05T06:14:57;102175.72;;;3.18;79.35
48053;BME280;33824;51.600;5.718;2023-04-05T06:17:23;102180.31;;;3.29;78.45
48053;BME280;33824;51.600;5.718;2023-04-05T06:19:48;102178.16;;;3.35;78.20
48053;BME280;33824;51.600;5.718;2023-04-05T06:22:14;102172.41;;;3.43;77.69
48053;BME280;33824;51.600;5.718;2023-04-05T06:24:40;102181.53;;;3.52;77.32
48053;BME280;33824;51.600;5.718;2023-04-05T06:27:05;102180.00;;;3.62;77.37
48053;BME280;33824;51.600;5.718;2023-04-05T06:29:31;102179.50;;;3.69;76.93
48053;BME280;33824;51.600;5.718;2023-04-05T06:31:56;102177.16;;;3.79;76.42
48053;BME280;33824;51.600;5.718;2023-04-05T06:34:22;102175.59;;;3.89;76.43
48053;BME280;33824;51.600;5.718;2023-04-05T06:36:47;102183.03;;;3.97;75.90
48053;BME280;33824;51.600;5.718;2023-04-05T06:39:13;102174.22;;;4.10;75.98
48053;BME280;33824;51.600;5.718;2023-04-05T06:41:39;102169.81;;;4.23;75.85
48053;BME280;33824;51.600;5.718;2023-04-05T06:44:05;102174.94;;;4.39;75.25
48053;BME280;33824;51.600;5.718;2023-04-05T06:46:30;102169.78;;;4.50;74.85
48053;BME280;33824;51.600;5.718;2023-04-05T06:48:57;102168.03;;;4.63;74.46
48053;BME280;33824;51.600;5.718;2023-04-05T06:51:22;102168.25;;;4.73;74.06
48053;BME280;33824;51.600;5.718;2023-04-05T06:53:49;102174.50;;;4.84;73.48
48053;BME280;33824;51.600;5.718;2023-04-05T06:56:15;102177.44;;;4.93;73.31
48053;BME280;33824;51.600;5.718;2023-04-05T06:58:40;102169.72;;;5.02;72.78
48053;BME280;33824;51.600;5.718;2023-04-05T07:01:06;102175.47;;;5.09;72.22
48053;BME280;33824;51.600;5.718;2023-04-05T07:03:32;102179.91;;;5.21;72.47
48053;BME280;33824;51.600;5.718;2023-04-05T07:05:59;102173.72;;;5.33;71.87
48053;BME280;33824;51.600;5.718;2023-04-05T07:08:25;102178.28;;;5.44;71.44
48053;BME280;33824;51.600;5.718;2023-04-05T07:10:51;102185.31;;;5.56;71.32
48053;BME280;33824;51.600;5.718;2023-04-05T07:13:21;102178.44;;;5.66;71.18
48053;BME280;33824;51.600;5.718;2023-04-05T07:15:46;102178.59;;;5.75;71.19
48053;BME280;33824;51.600;5.718;2023-04-05T07:18:12;102181.25;;;5.88;70.69
48053;BME280;33824;51.600;5.718;2023-04-05T07:20:40;102172.91;;;6.05;70.40
48053;BME280;33824;51.600;5.718;2023-04-05T07:23:06;102170.31;;;6.16;69.94
48053;BME280;33824;51.600;5.718;2023-04-05T07:25:32;102180.00;;;6.28;69.55
48053;BME280;33824;51.600;5.718;2023-04-05T07:27:57;102174.88;;;6.38;69.37
48053;BME280;33824;51.600;5.718;2023-04-05T07:30:24;102171.19;;;6.52;68.65
48053;BME280;33824;51.600;5.718;2023-04-05T07:32:52;102176.28;;;6.66;68.67
48053;BME280;33824;51.600;5.718;2023-04-05T07:35:18;102172.47;;;6.81;68.31
48053;BME280;33824;51.600;5.718;2023-04-05T07:37:44;102172.13;;;6.97;68.26
48053;BME280;33824;51.600;5.718;2023-04-05T07:40:10;102172.03;;;7.20;68.10
48053;BME280;33824;51.600;5.718;2023-04-05T07:42:36;102176.75;;;7.39;67.59
48053;BME280;33824;51.600;5.718;2023-04-05T07:45:01;102170.59;;;7.50;66.63
48053;BME280;33824;51.600;5.718;2023-04-05T07:47:27;102175.78;;;7.62;65.89
48053;BME280;33824;51.600;5.718;2023-04-05T07:49:52;102173.59;;;7.79;65.85
48053;BME280;33824;51.600;5.718;2023-04-05T07:52:18;102174.84;;;7.95;65.71
48053;BME280;33824;51.600;5.718;2023-04-05T07:54:43;102173.38;;;8.13;65.60
48053;BME280;33824;51.600;5.718;2023-04-05T07:57:15;102169.69;;;8.37;65.26
48053;BME280;33824;51.600;5.718;2023-04-05T07:59:41;102165.50;;;8.55;64.71
48053;BME280;33824;51.600;5.718;2023-04-05T08:02:07;102167.13;;;8.67;64.54
48053;BME280;33824;51.600;5.718;2023-04-05T08:04:32;102158.75;;;8.72;63.45
48053;BME280;33824;51.600;5.718;2023-04-05T08:06:58;102167.44;;;8.74;63.18
48053;BME280;33824;51.600;5.718;2023-04-05T08:09:23;102158.81;;;8.81;63.03
48053;BME280;33824;51.600;5.718;2023-04-05T08:11:49;102163.28;;;8.81;62.65
48053;BME280;33824;51.600;5.718;2023-04-05T08:14:14;102166.84;;;8.91;62.62
48053;BME280;33824;51.600;5.718;2023-04-05T08:16:40;102156.31;;;9.10;61.88
48053;BME280;33824;51.600;5.718;2023-04-05T08:19:05;102159.63;;;9.33;61.46
48053;BME280;33824;51.600;5.718;2023-04-05T08:21:31;102163.59;;;9.38;60.20
48053;BME280;33824;51.600;5.718;2023-04-05T08:23:56;102158.25;;;9.38;58.69
48053;BME280;33824;51.600;5.718;2023-04-05T08:26:23;102155.38;;;9.51;58.76
48053;BME280;33824;51.600;5.718;2023-04-05T08:28:48;102156.41;;;9.69;58.81
48053;BME280;33824;51.600;5.718;2023-04-05T08:31:14;102161.38;;;9.93;57.88
48053;BME280;33824;51.600;5.718;2023-04-05T08:33:39;102158.97;;;10.09;57.86
48053;BME280;33824;51.600;5.718;2023-04-05T08:36:09;102149.63;;;10.24;56.95
48053;BME280;33824;51.600;5.718;2023-04-05T08:38:35;102149.63;;;10.24;55.21
48053;BME280;33824;51.600;5.718;2023-04-05T08:41:17;102150.69;;;10.12;55.21
48053;BME280;33824;51.600;5.718;2023-04-05T08:43:59;102156.50;;;10.36;54.67
48053;BME280;33824;51.600;5.718;2023-04-05T08:46:30;102145.53;;;10.58;54.57
48053;BME280;33824;51.600;5.718;2023-04-05T08:48:56;102142.81;;;10.87;54.56
48053;BME280;33824;51.600;5.718;2023-04-05T08:51:26;102138.53;;;11.04;52.94
48053;BME280;33824;51.600;5.718;2023-04-05T08:53:52;102147.22;;;11.16;52.73
48053;BME280;33824;51.600;5.718;2023-04-05T08:56:25;102142.69;;;11.26;52.78
48053;BME280;33824;51.600;5.718;2023-04-05T08:58:57;102143.78;;;11.33;51.65
48053;BME280;33824;51.600;5.718;2023-04-05T09:01:28;102142.78;;;11.34;52.22
48053;BME280;33824;51.600;5.718;2023-04-05T09:04:03;102136.16;;;11.38;50.63
48053;BME280;33824;51.600;5.718;2023-04-05T09:06:29;102145.06;;;11.29;50.81
48053;BME280;33824;51.600;5.718;2023-04-05T09:08:58;102145.56;;;11.42;50.41
48053;BME280;33824;51.600;5.718;2023-04-05T09:11:24;102142.50;;;11.64;50.37
48053;BME280;33824;51.600;5.718;2023-04-05T09:13:49;102143.94;;;11.86;49.33
48053;BME280;33824;51.600;5.718;2023-04-05T09:16:16;102142.47;;;11.91;48.61
48053;BME280;33824;51.600;5.718;2023-04-05T09:18:41;102141.72;;;11.99;48.48
48053;BME280;33824;51.600;5.718;2023-04-05T09:21:07;102145.47;;;12.06;48.18
48053;BME280;33824;51.600;5.718;2023-04-05T09:23:34;102141.22;;;12.13;48.11
48053;BME280;33824;51.600;5.718;2023-04-05T09:26:16;102131.19;;;12.15;47.59
48053;BME280;33824;51.600;5.718;2023-04-05T09:28:41;102137.78;;;12.21;46.84
48053;BME280;33824;51.600;5.718;2023-04-05T09:31:08;102139.31;;;12.23;46.21
48053;BME280;33824;51.600;5.718;2023-04-05T09:33:34;102123.09;;;12.42;46.17
48053;BME280;33824;51.600;5.718;2023-04-05T09:36:04;102135.75;;;12.40;45.92
48053;BME280;33824;51.600;5.718;2023-04-05T09:38:43;102127.84;;;12.13;43.96
48053;BME280;33824;51.600;5.718;2023-04-05T09:41:10;102129.97;;;12.27;45.67
48053;BME280;33824;51.600;5.718;2023-04-05T09:43:39;102120.56;;;12.41;45.56
48053;BME280;33824;51.600;5.718;2023-04-05T09:46:06;102119.50;;;12.52;46.12
48053;BME280;33824;51.600;5.718;2023-04-05T09:48:47;102115.47;;;12.56;44.80
48053;BME280;33824;51.600;5.718;2023-04-05T09:51:17;102111.50;;;12.60;44.73
48053;BME280;33824;51.600;5.718;2023-04-05T09:54:05;102118.66;;;12.51;43.01
48053;BME280;33824;51.600;5.718;2023-04-05T09:56:39;102114.94;;;12.52;43.41
48053;BME280;33824;51.600;5.718;2023-04-05T09:59:06;102112.59;;;12.67;42.55
48053;BME280;33824;51.600;5.718;2023-04-05T10:01:33;102115.06;;;12.68;41.27
48053;BME280;33824;51.600;5.718;2023-04-05T10:03:59;102107.94;;;12.77;42.44
48053;BME280;33824;51.600;5.718;2023-04-05T10:06:38;102102.13;;;12.81;41.54
48053;BME280;33824;51.600;5.718;2023-04-05T10:09:06;102098.06;;;13.03;41.69
48053;BME280;33824;51.600;5.718;2023-04-05T10:11:33;102104.88;;;12.97;42.45
48053;BME280;33824;51.600;5.718;2023-04-05T10:14:04;102103.56;;;12.93;41.44
48053;BME280;33824;51.600;5.718;2023-04-05T10:16:32;102105.16;;;12.86;41.81
48053;BME280;33824;51.600;5.718;2023-04-05T10:19:01;102100.88;;;13.02;41.37
48053;BME280;33824;51.600;5.718;2023-04-05T10:21:34;102099.75;;;13.04;41.87
48053;BME280;33824;51.600;5.718;2023-04-05T10:24:14;102084.56;;;13.13;39.97
48053;BME280;33824;51.600;5.718;2023-04-05T10:29:37;102085.13;;;13.24;40.65
48053;BME280;33824;51.600;5.718;2023-04-05T10:32:12;102087.81;;;13.24;40.82
48053;BME280;33824;51.600;5.718;2023-04-05T10:34:52;102087.50;;;13.27;41.10
48053;BME280;33824;51.600;5.718;2023-04-05T10:38:10;102083.44;;;13.15;40.95
48053;BME280;33824;51.600;5.718;2023-04-05T10:40:31;102080.97;;;12.96;40.80
48053;BME280;33824;51.600;5.718;2023-04-05T10:42:57;102074.84;;;12.78;40.61
48053;BME280;33824;51.600;5.718;2023-04-05T10:45:25;102083.16;;;13.01;40.94
48053;BME280;33824;51.600;5.718;2023-04-05T10:47:58;102071.06;;;12.88;38.34
48053;BME280;33824;51.600;5.718;2023-04-05T10:50:27;102067.44;;;12.72;39.41
48053;BME280;33824;51.600;5.718;2023-04-05T10:52:52;102069.75;;;12.67;38.50
48053;BME280;33824;51.600;5.718;2023-04-05T10:55:20;102072.69;;;12.81;39.43
48053;BME280;33824;51.600;5.718;2023-04-05T10:57:46;102067.84;;;13.11;39.95
48053;BME280;33824;51.600;5.718;2023-04-05T11:00:14;102062.75;;;13.33;40.12
48053;BME280;33824;51.600;5.718;2023-04-05T11:02:40;102056.00;;;13.21;38.66
48053;BME280;33824;51.600;5.718;2023-04-05T11:05:33;102047.44;;;13.18;39.88
48053;BME280;33824;51.600;5.718;2023-04-05T11:08:03;102058.25;;;13.42;39.44
48053;BME280;33824;51.600;5.718;2023-04-05T11:10:28;102045.41;;;13.62;39.01
48053;BME280;33824;51.600;5.718;2023-04-05T11:18:11;102047.09;;;13.71;36.13
48053;BME280;33824;51.600;5.718;2023-04-05T11:21:06;102038.84;;;13.48;36.44
48053;BME280;33824;51.600;5.718;2023-04-05T11:24:02;102041.13;;;12.93;36.32
48053;BME280;33824;51.600;5.718;2023-04-05T11:26:54;102049.69;;;12.96;37.68
48053;BME280;33824;51.600;5.718;2023-04-05T11:29:45;102048.13;;;13.28;38.37
48053;BME280;33824;51.600;5.718;2023-04-05T11:32:12;102027.66;;;13.69;38.85
48053;BME280;33824;51.600;5.718;2023-04-05T11:34:41;102037.22;;;13.87;38.99
48053;BME280;33824;51.600;5.718;2023-04-05T11:37:06;102030.50;;;14.08;38.75
48053;BME280;33824;51.600;5.718;2023-04-05T11:39:32;102024.50;;;14.14;37.12
48053;BME280;33824;51.600;5.718;2023-04-05T11:42:03;102015.25;;;14.32;37.95
48053;BME280;33824;51.600;5.718;2023-04-05T11:44:45;102015.09;;;14.42;36.23
48053;BME280;33824;51.600;5.718;2023-04-05T11:47:11;102016.94;;;14.17;37.18
48053;BME280;33824;51.600;5.718;2023-04-05T11:49:38;102013.75;;;14.14;36.50
48053;BME280;33824;51.600;5.718;2023-04-05T11:52:17;102009.91;;;14.16;36.79
48053;BME280;33824;51.600;5.718;2023-04-05T11:54:44;102007.06;;;14.18;36.47
48053;BME280;33824;51.600;5.718;2023-04-05T11:57:17;102002.19;;;13.97;35.17
48053;BME280;33824;51.600;5.718;2023-04-05T11:59:43;102004.22;;;14.03;35.56
48053;BME280;33824;51.600;5.718;2023-04-05T12:02:08;101995.16;;;14.04;35.86
48053;BME280;33824;51.600;5.718;2023-04-05T12:04:35;102001.00;;;14.16;35.85
48053;BME280;33824;51.600;5.718;2023-04-05T12:07:17;102003.88;;;14.06;33.63
48053;BME280;33824;51.600;5.718;2023-04-05T12:10:00;101987.78;;;13.98;33.20
48053;BME280;33824;51.600;5.718;2023-04-05T12:12:28;101992.47;;;14.12;34.58
48053;BME280;33824;51.600;5.718;2023-04-05T12:14:58;101992.13;;;14.15;35.05
48053;BME280;33824;51.600;5.718;2023-04-05T12:17:44;101987.44;;;14.25;35.63
48053;BME280;33824;51.600;5.718;2023-04-05T12:20:13;101986.44;;;14.10;33.84
48053;BME280;33824;51.600;5.718;2023-04-05T12:22:41;101979.75;;;14.06;34.43
48053;BME280;33824;51.600;5.718;2023-04-05T12:25:08;101977.75;;;13.92;33.86
48053;BME280;33824;51.600;5.718;2023-04-05T12:27:34;101976.56;;;13.94;33.92
48053;BME280;33824;51.600;5.718;2023-04-05T12:32:41;101972.03;;;13.79;33.27
48053;BME280;33824;51.600;5.718;2023-04-05T12:35:11;101973.38;;;13.83;33.40
48053;BME280;33824;51.600;5.718;2023-04-05T12:37:38;101963.31;;;13.85;33.31
48053;BME280;33824;51.600;5.718;2023-04-05T12:40:05;101968.69;;;13.69;32.57
48053;BME280;33824;51.600;5.718;2023-04-05T12:42:35;101962.31;;;13.78;32.96
48053;BME280;33824;51.600;5.718;2023-04-05T12:45:06;101961.16;;;13.88;32.76
48053;BME280;33824;51.600;5.718;2023-04-05T12:47:33;101953.59;;;14.00;32.78
48053;BME280;33824;51.600;5.718;2023-04-05T12:50:13;101951.25;;;13.97;32.22
48053;BME280;33824;51.600;5.718;2023-04-05T12:53:00;101949.03;;;14.25;33.42
48053;BME280;33824;51.600;5.718;2023-04-05T12:55:29;101947.31;;;14.48;33.17
48053;BME280;33824;51.600;5.718;2023-04-05T12:57:58;101943.94;;;14.54;33.59
48053;BME280;33824;51.600;5.718;2023-04-05T13:00:26;101935.69;;;14.64;33.94
48053;BME280;33824;51.600;5.718;2023-04-05T13:02:53;101939.34;;;14.71;33.52
48053;BME280;33824;51.600;5.718;2023-04-05T13:05:20;101932.66;;;14.67;32.50
48053;BME280;33824;51.600;5.718;2023-04-05T13:07:46;101933.19;;;14.62;32.74
48053;BME280;33824;51.600;5.718;2023-04-05T13:10:12;101933.66;;;14.66;31.63
48053;BME280;33824;51.600;5.718;2023-04-05T13:12:38;101934.81;;;14.71;32.10
48053;BME280;33824;51.600;5.718;2023-04-05T13:15:04;101930.59;;;14.77;32.48
48053;BME280;33824;51.600;5.718;2023-04-05T13:17:29;101928.41;;;15.11;32.43
48053;BME280;33824;51.600;5.718;2023-04-05T13:19:55;101928.25;;;15.35;32.97
48053;BME280;33824;51.600;5.718;2023-04-05T13:22:20;101915.88;;;15.26;32.22